createdAt,value
2024-02-01T00:00:34.370Z,4.7
2024-02-01T00:01:36.463Z,4.7
2024-02-01T00:02:38.047Z,4.7
2024-02-01T00:03:40.025Z,4.7
2024-02-01T00:04:41.938Z,4.7
2024-02-01T00:05:44.316Z,4.7
2024-02-01T00:06:47.053Z,4.7
2024-02-01T00:07:49.394Z,4.7
2024-02-01T00:08:50.993Z,4.7
2024-02-01T00:09:53.093Z,4.7
2024-02-01T00:10:54.587Z,4.7
2024-02-01T00:11:56.157Z,4.7
2024-02-01T00:12:58.320Z,4.7
2024-02-01T00:14:00.463Z,4.7
2024-02-01T00:15:02.609Z,4.7
2024-02-01T00:16:04.741Z,4.7
2024-02-01T00:17:06.306Z,4.7
2024-02-01T00:18:07.979Z,4.7
2024-02-01T00:19:10.742Z,4.7
2024-02-01T00:20:13.367Z,4.7
2024-02-01T00:21:15.057Z,4.7
2024-02-01T00:22:33.136Z,4.7
2024-02-01T00:23:36.677Z,4.7
2024-02-01T00:24:38.554Z,4.7
2024-02-01T00:25:40.362Z,4.7
2024-02-01T00:26:41.902Z,4.7
2024-02-01T00:27:43.656Z,4.7
2024-02-01T00:28:45.205Z,4.7
2024-02-01T00:29:47.155Z,4.7
2024-02-01T00:30:48.818Z,4.8
2024-02-01T00:31:50.469Z,4.8
2024-02-01T00:32:52.507Z,4.8
2024-02-01T00:33:55.365Z,4.8
2024-02-01T00:34:58.354Z,4.8
2024-02-01T00:36:00.793Z,4.8
2024-02-01T00:37:02.992Z,4.8
2024-02-01T00:38:04.550Z,4.8
2024-02-01T00:39:06.104Z,4.8
2024-02-01T00:40:08.781Z,4.8
2024-02-01T00:41:10.772Z,4.8
2024-02-01T00:42:12.626Z,4.8
2024-02-01T00:43:15.629Z,4.8
2024-02-01T00:44:17.104Z,4.8
2024-02-01T00:45:18.820Z,4.8
2024-02-01T00:46:20.980Z,4.8
2024-02-01T00:47:22.918Z,4.8
2024-02-01T00:48:25.339Z,4.8
2024-02-01T00:49:28.326Z,4.8
2024-02-01T00:50:31.640Z,4.8
2024-02-01T00:51:33.780Z,4.8
2024-02-01T00:52:35.331Z,4.8
2024-02-01T00:53:36.983Z,4.8
2024-02-01T00:54:39.121Z,4.8
2024-02-01T00:55:40.699Z,4.8
2024-02-01T00:56:42.467Z,4.8
2024-02-01T00:57:44.274Z,4.8
2024-02-01T00:58:45.743Z,4.8
2024-02-01T00:59:47.614Z,4.8
2024-02-01T01:00:50.197Z,4.8
2024-02-01T01:01:53.004Z,4.8
2024-02-01T01:02:55.743Z,4.8
2024-02-01T01:03:58.028Z,4.8
2024-02-01T01:04:59.880Z,4.9
2024-02-01T01:06:02.550Z,4.9
2024-02-01T01:07:04.637Z,4.9
2024-02-01T01:08:06.470Z,4.9
2024-02-01T01:09:09.028Z,4.9
2024-02-01T01:10:12.038Z,4.9
2024-02-01T01:11:13.608Z,4.9
2024-02-01T01:12:15.523Z,4.9
2024-02-01T01:13:17.680Z,4.9
2024-02-01T01:14:19.312Z,4.9
2024-02-01T01:15:21.045Z,4.9
2024-02-01T01:16:23.035Z,4.9
2024-02-01T01:17:24.580Z,4.9
2024-02-01T01:18:26.344Z,4.9
2024-02-01T01:19:29.303Z,4.9
2024-02-01T01:20:31.850Z,5
2024-02-01T01:21:34.023Z,5
2024-02-01T01:22:35.568Z,5
2024-02-01T01:23:37.172Z,5
2024-02-01T01:24:38.876Z,5
2024-02-01T01:25:40.907Z,5
2024-02-01T01:26:42.505Z,5
2024-02-01T01:27:44.460Z,5
2024-02-01T01:28:46.050Z,5
2024-02-01T01:29:47.862Z,5
2024-02-01T01:30:49.528Z,5
2024-02-01T01:31:51.033Z,5.1
2024-02-01T01:32:52.859Z,5.1
2024-02-01T01:33:55.992Z,5.1
2024-02-01T01:34:58.655Z,5.1
2024-02-01T01:36:00.922Z,5.1
2024-02-01T01:37:03.315Z,5.1
2024-02-01T01:38:04.891Z,5.1
2024-02-01T01:39:06.582Z,5.1
2024-02-01T01:40:09.046Z,5.1
2024-02-01T01:41:11.101Z,5.1
2024-02-01T01:42:12.894Z,5.1
2024-02-01T01:43:15.615Z,5.1
2024-02-01T01:44:17.288Z,5.2
2024-02-01T01:45:19.036Z,5.2
2024-02-01T01:46:21.046Z,5.2
2024-02-01T01:47:22.670Z,5.2
2024-02-01T01:48:24.738Z,5.2
2024-02-01T01:49:27.347Z,5.2
2024-02-01T01:50:29.570Z,5.2
2024-02-01T01:51:31.423Z,5.2
2024-02-01T01:52:32.919Z,5.2
2024-02-01T01:53:35.062Z,5.2
2024-02-01T01:54:36.988Z,5.2
2024-02-01T01:55:38.532Z,5.2
2024-02-01T01:56:40.194Z,5.2
2024-02-01T01:57:42.298Z,5.2
2024-02-01T01:58:44.274Z,5.2
2024-02-01T01:59:46.258Z,5.2
2024-02-01T02:00:48.387Z,5.2
2024-02-01T02:01:50.387Z,5.3
2024-02-01T02:02:52.222Z,5.3
2024-02-01T02:03:54.459Z,5.3
2024-02-01T02:04:56.554Z,5.3
2024-02-01T02:05:58.709Z,5.3
2024-02-01T02:07:01.860Z,5.3
2024-02-01T02:08:03.415Z,5.3
2024-02-01T02:09:05.195Z,5.3
2024-02-01T02:10:07.382Z,5.3
2024-02-01T02:11:08.944Z,5.3
2024-02-01T02:12:11.760Z,5.3
2024-02-01T02:13:14.203Z,5.3
2024-02-01T02:14:15.949Z,5.3
2024-02-01T02:15:18.134Z,5.3
2024-02-01T02:16:20.281Z,5.3
2024-02-01T02:17:21.902Z,5.3
2024-02-01T02:18:24.948Z,5.3
2024-02-01T02:19:29.446Z,5.2
2024-02-01T02:20:32.853Z,5.2
2024-02-01T02:21:35.108Z,5.2
2024-02-01T02:22:36.628Z,5.2
2024-02-01T02:23:38.721Z,5.2
2024-02-01T02:24:40.658Z,5.2
2024-02-01T02:25:42.270Z,5.2
2024-02-01T02:26:44.088Z,5.2
2024-02-01T02:27:46.152Z,5.2
2024-02-01T02:28:47.922Z,5.2
2024-02-01T02:29:49.789Z,5.2
2024-02-01T02:30:51.918Z,5.2
2024-02-01T02:31:53.485Z,5.2
2024-02-01T02:32:55.483Z,5.2
2024-02-01T02:33:58.779Z,5.2
2024-02-01T02:35:01.816Z,5.2
2024-02-01T02:36:03.580Z,5.1
2024-02-01T02:37:05.817Z,5.1
2024-02-01T02:38:07.462Z,5.1
2024-02-01T02:39:09.511Z,5.1
2024-02-01T02:40:11.852Z,5.1
2024-02-01T02:41:13.748Z,5.1
2024-02-01T02:42:15.513Z,5.1
2024-02-01T02:43:17.477Z,5.1
2024-02-01T02:44:19.132Z,5.1
2024-02-01T02:45:21.535Z,5.1
2024-02-01T02:46:23.635Z,5.1
2024-02-01T02:47:25.272Z,5
2024-02-01T02:48:27.662Z,5
2024-02-01T02:49:30.260Z,5
2024-02-01T02:50:32.762Z,5
2024-02-01T02:51:35.109Z,5
2024-02-01T02:52:36.683Z,5
2024-02-01T02:53:38.499Z,5
2024-02-01T02:54:40.355Z,5
2024-02-01T02:55:41.906Z,5
2024-02-01T02:56:43.644Z,5
2024-02-01T02:57:45.955Z,4.9
2024-02-01T02:58:47.536Z,4.9
2024-02-01T02:59:49.136Z,4.9
2024-02-01T03:00:51.227Z,4.9
2024-02-01T03:01:53.236Z,4.9
2024-02-01T03:02:54.867Z,4.9
2024-02-01T03:03:57.328Z,4.9
2024-02-01T03:04:59.423Z,4.9
2024-02-01T03:06:01.971Z,4.9
2024-02-01T03:07:04.332Z,4.9
2024-02-01T03:08:06.766Z,4.9
2024-02-01T03:09:08.583Z,4.9
2024-02-01T03:10:10.763Z,4.9
2024-02-01T03:11:12.784Z,4.9
2024-02-01T03:12:14.761Z,4.9
2024-02-01T03:13:17.073Z,4.9
2024-02-01T03:14:18.737Z,4.9
2024-02-01T03:15:20.496Z,4.9
2024-02-01T03:16:23.007Z,4.9
2024-02-01T03:17:24.737Z,4.8
2024-02-01T03:18:26.587Z,4.8
2024-02-01T03:19:30.282Z,4.8
2024-02-01T03:20:32.912Z,4.8
2024-02-01T03:21:35.354Z,4.8
2024-02-01T03:22:36.960Z,4.8
2024-02-01T03:23:38.651Z,4.8
2024-02-01T03:24:40.606Z,4.8
2024-02-01T03:25:42.106Z,4.8
2024-02-01T03:26:43.750Z,4.8
2024-02-01T03:27:46.236Z,4.8
2024-02-01T03:28:48.085Z,4.8
2024-02-01T03:29:50.278Z,4.8
2024-02-01T03:30:52.004Z,4.8
2024-02-01T03:31:53.724Z,4.8
2024-02-01T03:32:56.123Z,4.8
2024-02-01T03:33:58.655Z,4.8
2024-02-01T03:35:02.128Z,4.8
2024-02-01T03:36:03.934Z,4.8
2024-02-01T03:37:05.899Z,4.8
2024-02-01T03:38:07.794Z,4.8
2024-02-01T03:39:09.592Z,4.8
2024-02-01T03:40:11.835Z,4.8
2024-02-01T03:41:13.352Z,4.8
2024-02-01T03:42:15.084Z,4.8
2024-02-01T03:43:17.069Z,4.8
2024-02-01T03:44:18.651Z,4.9
2024-02-01T03:45:20.651Z,4.9
2024-02-01T03:46:22.921Z,4.9
2024-02-01T03:47:24.757Z,4.9
2024-02-01T03:48:26.530Z,4.9
2024-02-01T03:49:29.478Z,4.9
2024-02-01T03:50:32.380Z,4.9
2024-02-01T03:51:34.452Z,4.9
2024-02-01T03:52:36.031Z,4.9
2024-02-01T03:53:38.056Z,4.9
2024-02-01T03:54:40.245Z,4.9
2024-02-01T03:55:42.196Z,4.9
2024-02-01T03:56:44.789Z,4.9
2024-02-01T03:57:46.671Z,4.9
2024-02-01T03:58:48.512Z,4.9
2024-02-01T03:59:50.216Z,4.9
2024-02-01T04:00:52.523Z,4.9
2024-02-01T04:01:54.694Z,4.9
2024-02-01T04:02:57.020Z,4.9
2024-02-01T04:03:59.271Z,4.9
2024-02-01T04:05:01.937Z,4.9
2024-02-01T04:06:04.342Z,4.9
2024-02-01T04:07:06.812Z,4.9
2024-02-01T04:08:09.163Z,4.9
2024-02-01T04:09:11.090Z,4.9
2024-02-01T04:10:13.333Z,4.9
2024-02-01T04:11:15.027Z,4.9
2024-02-01T04:12:17.566Z,4.9
2024-02-01T04:13:20.133Z,4.9
2024-02-01T04:14:21.755Z,4.9
2024-02-01T04:15:23.562Z,4.9
2024-02-01T04:16:25.965Z,4.9
2024-02-01T04:17:27.571Z,4.9
2024-02-01T04:18:30.137Z,4.9
2024-02-01T04:19:32.990Z,4.9
2024-02-01T04:20:35.377Z,4.9
2024-02-01T04:21:37.780Z,4.9
2024-02-01T04:22:39.318Z,4.9
2024-02-01T04:23:40.937Z,4.9
2024-02-01T04:24:43.111Z,4.9
2024-02-01T04:25:44.889Z,4.9
2024-02-01T04:26:46.551Z,4.9
2024-02-01T04:27:49.047Z,4.9
2024-02-01T04:28:50.872Z,4.9
2024-02-01T04:29:52.553Z,4.9
2024-02-01T04:30:54.295Z,4.9
2024-02-01T04:31:55.964Z,4.9
2024-02-01T04:32:58.075Z,4.9
2024-02-01T04:34:00.956Z,4.9
2024-02-01T04:35:04.679Z,4.9
2024-02-01T04:36:07.828Z,4.9
2024-02-01T04:37:10.057Z,4.9
2024-02-01T04:38:11.674Z,4.9
2024-02-01T04:39:13.442Z,4.9
2024-02-01T04:40:15.887Z,4.9
2024-02-01T04:41:17.583Z,4.9
2024-02-01T04:42:19.190Z,4.9
2024-02-01T04:43:21.421Z,4.9
2024-02-01T04:44:23.012Z,4.9
2024-02-01T04:45:24.870Z,4.9
2024-02-01T04:46:27.306Z,4.9
2024-02-01T04:47:29.071Z,4.9
2024-02-01T04:48:30.914Z,4.9
2024-02-01T04:49:33.828Z,4.9
2024-02-01T04:50:36.306Z,4.9
2024-02-01T04:51:38.228Z,4.9
2024-02-01T04:53:09.449Z,4.9
2024-02-01T04:54:11.249Z,4.9
2024-02-01T04:55:14.385Z,4.9
2024-02-01T04:56:15.977Z,4.9
2024-02-01T04:57:18.190Z,4.9
2024-02-01T04:58:20.414Z,4.9
2024-02-01T04:59:22.094Z,4.9
2024-02-01T05:00:23.751Z,4.9
2024-02-01T05:01:26.081Z,4.9
2024-02-01T05:02:28.376Z,4.9
2024-02-01T05:03:30.804Z,4.9
2024-02-01T05:04:33.314Z,4.9
2024-02-01T05:05:35.705Z,4.9
2024-02-01T05:06:38.316Z,4.9
2024-02-01T05:07:40.580Z,4.9
2024-02-01T05:08:42.442Z,4.9
2024-02-01T05:09:44.369Z,4.9
2024-02-01T05:10:46.238Z,4.9
2024-02-01T05:11:48.057Z,4.9
2024-02-01T05:12:49.703Z,4.9
2024-02-01T05:13:51.252Z,4.9
2024-02-01T05:14:53.141Z,4.9
2024-02-01T05:15:55.001Z,4.9
2024-02-01T05:16:57.399Z,4.9
2024-02-01T05:17:59.211Z,4.9
2024-02-01T05:19:03.060Z,4.9
2024-02-01T05:20:11.709Z,4.9
2024-02-01T05:21:14.332Z,4.9
2024-02-01T05:22:16.615Z,4.9
2024-02-01T05:23:18.222Z,4.9
2024-02-01T05:24:19.901Z,4.9
2024-02-01T05:25:21.750Z,4.9
2024-02-01T05:26:23.312Z,4.9
2024-02-01T05:27:25.133Z,4.9
2024-02-01T05:28:27.264Z,4.9
2024-02-01T05:29:28.828Z,4.9
2024-02-01T05:30:30.698Z,4.9
2024-02-01T05:31:32.822Z,4.9
2024-02-01T05:32:34.918Z,4.9
2024-02-01T05:33:37.375Z,4.9
2024-02-01T05:34:40.013Z,4.9
2024-02-01T05:35:42.410Z,4.9
2024-02-01T05:36:45.348Z,5
2024-02-01T05:37:46.866Z,5
2024-02-01T05:38:48.543Z,5
2024-02-01T05:39:50.554Z,5
2024-02-01T05:40:52.263Z,5
2024-02-01T05:41:53.891Z,5
2024-02-01T05:42:56.256Z,5
2024-02-01T05:43:58.353Z,5
2024-02-01T05:44:59.991Z,5
2024-02-01T05:46:02.370Z,5
2024-02-01T05:47:03.969Z,5
2024-02-01T05:48:06.132Z,5
2024-02-01T05:49:08.710Z,5
2024-02-01T05:50:11.247Z,5.1
2024-02-01T05:51:13.223Z,5.1
2024-02-01T05:52:15.199Z,5.1
2024-02-01T05:53:16.917Z,5.1
2024-02-01T05:54:18.785Z,5.1
2024-02-01T05:55:21.197Z,5.1
2024-02-01T05:56:22.676Z,5.1
2024-02-01T05:57:24.411Z,5.1
2024-02-01T05:58:26.754Z,5.1
2024-02-01T05:59:28.285Z,5.1
2024-02-01T06:00:30.000Z,5.1
2024-02-01T06:01:32.970Z,5.2
2024-02-01T06:02:34.710Z,5.2
2024-02-01T06:03:36.888Z,5.2
2024-02-01T06:04:38.463Z,5.2
2024-02-01T06:05:40.665Z,5.2
2024-02-01T06:06:43.137Z,5.2
2024-02-01T06:07:45.770Z,5.2
2024-02-01T06:08:47.415Z,5.2
2024-02-01T06:09:49.728Z,5.2
2024-02-01T06:10:51.198Z,5.2
2024-02-01T06:11:52.889Z,5.2
2024-02-01T06:12:55.438Z,5.2
2024-02-01T06:13:57.168Z,5.2
2024-02-01T06:14:59.012Z,5.2
2024-02-01T06:16:01.684Z,5.2
2024-02-01T06:17:03.391Z,5.2
2024-02-01T06:18:05.426Z,5.2
2024-02-01T06:19:08.185Z,5.2
2024-02-01T06:20:11.231Z,5.3
2024-02-01T06:21:14.223Z,5.3
2024-02-01T06:22:16.331Z,5.3
2024-02-01T06:23:18.252Z,5.3
2024-02-01T06:24:20.146Z,5.3
2024-02-01T06:25:22.475Z,5.3
2024-02-01T06:26:24.048Z,5.3
2024-02-01T06:27:26.091Z,5.3
2024-02-01T06:28:28.327Z,5.3
2024-02-01T06:29:29.876Z,5.3
2024-02-01T06:30:31.815Z,5.3
2024-02-01T06:31:34.126Z,5.3
2024-02-01T06:32:35.920Z,5.3
2024-02-01T06:33:38.537Z,5.3
2024-02-01T06:34:40.989Z,5.3
2024-02-01T06:35:43.047Z,5.3
2024-02-01T06:36:45.243Z,5.3
2024-02-01T06:37:46.773Z,5.3
2024-02-01T06:38:48.751Z,5.4
2024-02-01T06:39:53.612Z,5.4
2024-02-01T06:40:56.793Z,5.4
2024-02-01T06:41:59.213Z,5.4
2024-02-01T06:43:02.273Z,5.4
2024-02-01T06:44:04.396Z,5.4
2024-02-01T06:45:06.544Z,5.4
2024-02-01T06:46:08.563Z,5.4
2024-02-01T06:47:10.655Z,5.4
2024-02-01T06:48:13.049Z,5.4
2024-02-01T06:49:17.444Z,5.4
2024-02-01T06:50:20.280Z,5.4
2024-02-01T06:51:24.078Z,5.5
2024-02-01T06:52:26.823Z,5.5
2024-02-01T06:53:28.458Z,5.5
2024-02-01T06:54:30.616Z,5.5
2024-02-01T06:55:33.201Z,5.5
2024-02-01T06:56:35.090Z,5.5
2024-02-01T06:57:37.532Z,5.5
2024-02-01T06:58:39.476Z,5.5
2024-02-01T06:59:41.629Z,5.5
2024-02-01T07:00:44.303Z,5.6
2024-02-01T07:01:46.525Z,5.6
2024-02-01T07:02:48.583Z,5.6
2024-02-01T07:03:51.194Z,5.6
2024-02-01T07:04:54.673Z,5.6
2024-02-01T07:05:57.269Z,5.6
2024-02-01T07:06:59.715Z,5.6
2024-02-01T07:08:02.070Z,5.6
2024-02-01T07:09:03.935Z,5.6
2024-02-01T07:10:05.936Z,5.6
2024-02-01T07:11:07.632Z,5.6
2024-02-01T07:12:09.444Z,5.6
2024-02-01T07:13:11.457Z,5.6
2024-02-01T07:14:13.094Z,5.6
2024-02-01T07:15:14.830Z,5.6
2024-02-01T07:16:17.128Z,5.6
2024-02-01T07:17:18.781Z,5.6
2024-02-01T07:18:20.943Z,5.7
2024-02-01T07:19:25.022Z,5.7
2024-02-01T07:20:27.880Z,5.7
2024-02-01T07:21:29.482Z,5.7
2024-02-01T07:22:31.573Z,5.7
2024-02-01T07:23:33.375Z,5.7
2024-02-01T07:24:35.265Z,5.7
2024-02-01T07:25:37.202Z,5.7
2024-02-01T07:26:39.775Z,5.7
2024-02-01T07:27:42.127Z,5.7
2024-02-01T07:28:43.955Z,5.7
2024-02-01T07:29:45.576Z,5.7
2024-02-01T07:30:47.712Z,5.7
2024-02-01T07:31:49.319Z,5.7
2024-02-01T07:32:51.051Z,5.7
2024-02-01T07:33:53.494Z,5.7
2024-02-01T07:34:56.449Z,5.7
2024-02-01T07:35:58.794Z,5.7
2024-02-01T07:37:00.808Z,5.8
2024-02-01T07:38:02.541Z,5.8
2024-02-01T07:39:04.323Z,5.8
2024-02-01T07:40:08.638Z,5.8
2024-02-01T07:41:10.387Z,5.8
2024-02-01T07:42:12.344Z,5.8
2024-02-01T07:43:14.209Z,5.8
2024-02-01T07:44:15.906Z,5.8
2024-02-01T07:45:17.899Z,5.8
2024-02-01T07:46:20.578Z,5.8
2024-02-01T07:47:22.277Z,5.8
2024-02-01T07:48:24.374Z,5.8
2024-02-01T07:49:27.622Z,5.8
2024-02-01T07:50:30.731Z,5.8
2024-02-01T07:51:32.469Z,5.8
2024-02-01T07:52:34.097Z,5.8
2024-02-01T07:53:35.812Z,5.8
2024-02-01T07:54:38.118Z,5.8
2024-02-01T07:55:39.613Z,5.8
2024-02-01T07:56:41.820Z,5.8
2024-02-01T07:57:43.881Z,5.9
2024-02-01T07:58:45.386Z,5.9
2024-02-01T07:59:47.327Z,5.9
2024-02-01T08:00:49.737Z,5.9
2024-02-01T08:01:51.716Z,5.9
2024-02-01T08:02:53.468Z,5.9
2024-02-01T08:03:55.669Z,5.9
2024-02-01T08:04:57.788Z,5.9
2024-02-01T08:05:59.763Z,5.9
2024-02-01T08:07:03.991Z,5.9
2024-02-01T08:08:07.193Z,5.9
2024-02-01T08:09:08.840Z,5.9
2024-02-01T08:10:11.034Z,6
2024-02-01T08:11:12.604Z,6
2024-02-01T08:12:14.735Z,6
2024-02-01T08:13:16.979Z,6
2024-02-01T08:14:18.707Z,6
2024-02-01T08:15:21.125Z,6
2024-02-01T08:16:24.421Z,6
2024-02-01T08:17:26.455Z,6.1
2024-02-01T08:18:28.581Z,6.1
2024-02-01T08:19:41.268Z,6.1
2024-02-01T08:20:44.899Z,6.1
2024-02-01T08:21:47.569Z,6.1
2024-02-01T08:22:50.582Z,6.1
2024-02-01T08:23:52.771Z,6.1
2024-02-01T08:24:54.680Z,6.1
2024-02-01T08:25:56.969Z,6.2
2024-02-01T08:26:58.907Z,6.2
2024-02-01T08:28:01.361Z,6.2
2024-02-01T08:29:03.759Z,6.2
2024-02-01T08:30:05.502Z,6.2
2024-02-01T08:31:07.732Z,6.2
2024-02-01T08:32:10.204Z,6.2
2024-02-01T08:33:12.014Z,6.2
2024-02-01T08:34:14.742Z,6.2
2024-02-01T08:35:18.493Z,6.2
2024-02-01T08:36:21.087Z,6.2
2024-02-01T08:37:23.683Z,6.2
2024-02-01T08:38:25.253Z,6.2
2024-02-01T08:39:27.150Z,6.2
2024-02-01T08:40:29.358Z,6.2
2024-02-01T08:41:31.001Z,6.3
2024-02-01T08:42:35.151Z,6.3
2024-02-01T08:43:36.917Z,6.3
2024-02-01T08:44:38.593Z,6.3
2024-02-01T08:45:40.301Z,6.3
2024-02-01T08:46:42.100Z,6.3
2024-02-01T08:47:46.504Z,6.3
2024-02-01T08:48:49.549Z,6.3
2024-02-01T08:49:52.636Z,6.3
2024-02-01T08:50:55.276Z,6.3
2024-02-01T08:51:57.882Z,6.4
2024-02-01T08:52:59.519Z,6.4
2024-02-01T08:54:01.306Z,6.4
2024-02-01T08:55:04.424Z,6.4
2024-02-01T08:56:07.148Z,6.4
2024-02-01T08:57:08.848Z,6.4
2024-02-01T08:58:11.595Z,6.4
2024-02-01T08:59:13.395Z,6.5
2024-02-01T09:00:15.020Z,6.5
2024-02-01T09:01:17.557Z,6.5
2024-02-01T09:02:19.562Z,6.5
2024-02-01T09:03:21.897Z,6.6
2024-02-01T09:04:24.407Z,6.6
2024-02-01T09:05:26.815Z,6.7
2024-02-01T09:06:29.735Z,6.7
2024-02-01T09:07:33.401Z,6.7
2024-02-01T09:08:36.255Z,6.8
2024-02-01T09:09:39.589Z,6.8
2024-02-01T09:10:41.115Z,6.9
2024-02-01T09:11:42.918Z,6.9
2024-02-01T09:12:45.022Z,7
2024-02-01T09:13:46.927Z,7.1
2024-02-01T09:14:50.079Z,7.1
2024-02-01T09:15:51.821Z,7.2
2024-02-01T09:16:53.599Z,7.2
2024-02-01T09:17:55.426Z,7.3
2024-02-01T09:18:58.177Z,7.3
2024-02-01T09:20:01.092Z,7.4
2024-02-01T09:21:07.798Z,7.4
2024-02-01T09:22:10.030Z,7.5
2024-02-01T09:23:12.743Z,7.5
2024-02-01T09:24:14.505Z,7.6
2024-02-01T09:25:16.883Z,7.6
2024-02-01T09:26:18.775Z,7.6
2024-02-01T09:27:20.526Z,7.6
2024-02-01T09:28:22.404Z,7.6
2024-02-01T09:29:24.311Z,7.6
2024-02-01T09:30:26.508Z,7.7
2024-02-01T09:31:29.069Z,7.7
2024-02-01T09:32:31.213Z,7.7
2024-02-01T09:33:33.400Z,7.7
2024-02-01T09:34:36.359Z,7.7
2024-02-01T09:35:38.918Z,7.7
2024-02-01T09:36:40.856Z,7.7
2024-02-01T09:37:42.535Z,7.7
2024-02-01T09:38:44.159Z,7.7
2024-02-01T09:39:46.437Z,7.7
2024-02-01T09:40:47.970Z,7.8
2024-02-01T09:41:49.755Z,7.8
2024-02-01T09:42:51.511Z,7.8
2024-02-01T09:43:53.175Z,7.8
2024-02-01T09:44:54.851Z,7.8
2024-02-01T09:45:57.084Z,7.8
2024-02-01T09:46:58.608Z,7.8
2024-02-01T09:48:00.317Z,7.8
2024-02-01T09:49:12.170Z,7.9
2024-02-01T09:50:34.748Z,7.9
2024-02-01T09:51:36.294Z,7.9
2024-02-01T09:52:37.825Z,7.9
2024-02-01T09:53:39.577Z,8
2024-02-01T09:54:41.548Z,8
2024-02-01T09:55:43.111Z,8
2024-02-01T09:56:44.833Z,8.1
2024-02-01T09:57:46.653Z,8.1
2024-02-01T09:58:48.232Z,8.1
2024-02-01T09:59:50.232Z,8.2
2024-02-01T10:00:52.147Z,8.2
2024-02-01T10:01:54.364Z,8.2
2024-02-01T10:02:56.271Z,8.2
2024-02-01T10:03:59.295Z,8.3
2024-02-01T10:05:03.758Z,8.3
2024-02-01T10:06:05.363Z,8.3
2024-02-01T10:07:07.763Z,8.3
2024-02-01T10:08:09.923Z,8.3
2024-02-01T10:09:11.578Z,8.3
2024-02-01T10:10:13.626Z,8.4
2024-02-01T10:11:15.162Z,8.4
2024-02-01T10:12:16.895Z,8.4
2024-02-01T10:13:20.300Z,8.4
2024-02-01T10:14:22.076Z,8.4
2024-02-01T10:15:23.841Z,8.5
2024-02-01T10:16:26.230Z,8.5
2024-02-01T10:17:28.023Z,8.5
2024-02-01T10:18:30.193Z,8.5
2024-02-01T10:19:33.388Z,8.5
2024-02-01T10:20:35.860Z,8.5
2024-02-01T10:21:52.097Z,8.5
2024-02-01T10:23:02.576Z,8.5
2024-02-01T10:24:04.640Z,8.6
2024-02-01T10:25:06.688Z,8.6
2024-02-01T10:26:08.452Z,8.6
2024-02-01T10:27:10.519Z,8.6
2024-02-01T10:28:12.694Z,8.6
2024-02-01T10:29:14.469Z,8.6
2024-02-01T10:30:16.552Z,8.6
2024-02-01T10:31:18.975Z,8.6
2024-02-01T10:32:21.487Z,8.6
2024-02-01T10:33:28.551Z,8.6
2024-02-01T10:34:32.490Z,8.6
2024-02-01T10:35:34.829Z,8.5
2024-02-01T10:36:36.407Z,8.5
2024-02-01T10:37:37.919Z,8.5
2024-02-01T10:38:41.652Z,8.4
2024-02-01T10:39:44.741Z,8.4
2024-02-01T10:40:46.318Z,8.3
2024-02-01T10:41:47.917Z,8.3
2024-02-01T10:42:49.945Z,8.3
2024-02-01T10:43:51.493Z,8.2
2024-02-01T10:44:53.341Z,8.2
2024-02-01T10:45:55.732Z,8.2
2024-02-01T10:46:57.329Z,8.1
2024-02-01T10:47:58.999Z,8.1
2024-02-01T10:49:02.662Z,8.1
2024-02-01T10:50:05.695Z,8
2024-02-01T10:51:07.503Z,8
2024-02-01T10:52:09.258Z,7.9
2024-02-01T10:53:10.893Z,7.9
2024-02-01T10:54:12.616Z,7.9
2024-02-01T10:55:14.756Z,7.8
2024-02-01T10:56:16.359Z,7.8
2024-02-01T10:57:18.324Z,7.8
2024-02-01T10:58:20.938Z,7.7
2024-02-01T10:59:22.455Z,7.7
2024-02-01T11:00:24.848Z,7.7
2024-02-01T11:01:27.412Z,7.6
2024-02-01T11:02:29.365Z,7.6
2024-02-01T11:03:31.200Z,7.6
2024-02-01T11:04:39.502Z,7.5
2024-02-01T11:05:41.493Z,7.5
2024-02-01T11:06:43.927Z,7.5
2024-02-01T11:07:46.319Z,7.5
2024-02-01T11:08:47.924Z,7.5
2024-02-01T11:09:50.461Z,7.5
2024-02-01T11:10:52.859Z,7.5
2024-02-01T11:11:54.826Z,7.5
2024-02-01T11:12:57.362Z,7.5
2024-02-01T11:13:58.892Z,7.5
2024-02-01T11:15:00.583Z,7.5
2024-02-01T11:16:04.306Z,7.5
2024-02-01T11:17:05.899Z,7.5
2024-02-01T11:18:07.849Z,7.5
2024-02-01T11:19:10.667Z,7.6
2024-02-01T11:20:13.594Z,7.6
2024-02-01T11:21:15.948Z,7.6
2024-02-01T11:22:18.034Z,7.7
2024-02-01T11:23:19.563Z,7.7
2024-02-01T11:24:21.228Z,7.7
2024-02-01T11:25:23.300Z,7.8
2024-02-01T11:26:24.825Z,7.8
2024-02-01T11:27:26.856Z,7.9
2024-02-01T11:28:28.614Z,7.9
2024-02-01T11:29:30.134Z,7.9
2024-02-01T11:30:31.951Z,7.9
2024-02-01T11:31:48.933Z,7.9
2024-02-01T11:32:55.205Z,7.9
2024-02-01T11:33:58.908Z,7.9
2024-02-01T11:35:01.849Z,7.9
2024-02-01T11:36:04.898Z,7.9
2024-02-01T11:37:07.013Z,7.9
2024-02-01T11:38:08.662Z,8
2024-02-01T11:39:10.383Z,8
2024-02-01T11:40:12.323Z,8
2024-02-01T11:41:13.891Z,8
2024-02-01T11:42:30.900Z,8
2024-02-01T11:43:36.151Z,8
2024-02-01T11:44:37.851Z,8.1
2024-02-01T11:45:39.920Z,8.1
2024-02-01T11:46:41.577Z,8.1
2024-02-01T11:47:44.034Z,8.1
2024-02-01T11:48:47.263Z,8.1
2024-02-01T11:49:50.682Z,8.2
2024-02-01T11:50:52.984Z,8.2
2024-02-01T11:51:55.199Z,8.2
2024-02-01T11:52:56.747Z,8.2
2024-02-01T11:53:58.422Z,8.2
2024-02-01T11:55:01.439Z,8.2
2024-02-01T11:56:03.612Z,8.2
2024-02-01T11:57:05.247Z,8.3
2024-02-01T11:58:07.491Z,8.3
2024-02-01T11:59:09.039Z,8.3
2024-02-01T12:00:10.629Z,8.3
2024-02-01T12:01:17.165Z,8.4
2024-02-01T12:02:20.291Z,8.4
2024-02-01T12:03:22.513Z,8.4
2024-02-01T12:04:25.081Z,8.4
2024-02-01T12:05:27.056Z,8.4
2024-02-01T12:06:28.905Z,8.4
2024-02-01T12:07:30.936Z,8.4
2024-02-01T12:08:35.835Z,8.3
2024-02-01T12:09:37.596Z,8.3
2024-02-01T12:10:39.868Z,8.3
2024-02-01T12:11:41.513Z,8.3
2024-02-01T12:12:43.497Z,8.3
2024-02-01T12:13:45.009Z,8.3
2024-02-01T12:14:46.781Z,8.3
2024-02-01T12:15:49.249Z,8.3
2024-02-01T12:16:50.829Z,8.3
2024-02-01T12:17:52.766Z,8.3
2024-02-01T12:18:55.608Z,8.3
2024-02-01T12:19:59.671Z,8.3
2024-02-01T12:21:02.153Z,8.4
2024-02-01T12:22:04.845Z,8.4
2024-02-01T12:23:06.683Z,8.4
2024-02-01T12:24:08.518Z,8.4
2024-02-01T12:25:10.627Z,8.4
2024-02-01T12:26:12.120Z,8.4
2024-02-01T12:27:13.768Z,8.4
2024-02-01T12:28:16.305Z,8.5
2024-02-01T12:29:18.066Z,8.5
2024-02-01T12:30:20.179Z,8.5
2024-02-01T12:31:22.526Z,8.5
2024-02-01T12:32:24.039Z,8.6
2024-02-01T12:33:26.042Z,8.6
2024-02-01T12:34:29.144Z,8.5
2024-02-01T12:35:32.167Z,8.5
2024-02-01T12:36:33.752Z,8.5
2024-02-01T12:37:35.402Z,8.5
2024-02-01T12:38:37.145Z,8.4
2024-02-01T12:39:38.846Z,8.4
2024-02-01T12:40:40.392Z,8.4
2024-02-01T12:41:42.104Z,8.4
2024-02-01T12:42:44.409Z,8.3
2024-02-01T12:43:46.039Z,8.3
2024-02-01T12:44:47.851Z,8.3
2024-02-01T12:45:49.854Z,8.3
2024-02-01T12:46:51.677Z,8.3
2024-02-01T12:47:53.999Z,8.3
2024-02-01T12:48:56.747Z,8.3
2024-02-01T12:49:59.700Z,8.4
2024-02-01T12:51:02.144Z,8.4
2024-02-01T12:52:04.125Z,8.4
2024-02-01T12:53:05.618Z,8.4
2024-02-01T12:54:07.625Z,8.4
2024-02-01T12:55:09.576Z,8.5
2024-02-01T12:56:11.084Z,8.5
2024-02-01T12:57:12.834Z,8.5
2024-02-01T12:58:14.995Z,8.5
2024-02-01T12:59:16.501Z,8.5
2024-02-01T13:00:18.422Z,8.5
2024-02-01T13:01:20.850Z,8.4
2024-02-01T13:02:22.933Z,8.4
2024-02-01T13:03:24.961Z,8.4
2024-02-01T13:04:27.430Z,8.4
2024-02-01T13:05:29.583Z,8.4
2024-02-01T13:06:31.875Z,8.4
2024-02-01T13:07:34.616Z,8.4
2024-02-01T13:08:36.160Z,8.4
2024-02-01T13:09:37.882Z,8.4
2024-02-01T13:10:39.444Z,8.3
2024-02-01T13:11:41.954Z,8.3
2024-02-01T13:12:44.078Z,8.4
2024-02-01T13:13:45.575Z,8.4
2024-02-01T13:14:47.246Z,8.4
2024-02-01T13:15:49.185Z,8.4
2024-02-01T13:16:50.723Z,8.4
2024-02-01T13:17:52.544Z,8.4
2024-02-01T13:18:55.974Z,8.4
2024-02-01T13:19:59.383Z,8.4
2024-02-01T13:21:01.567Z,8.4
2024-02-01T13:22:03.906Z,8.4
2024-02-01T13:23:06.107Z,8.4
2024-02-01T13:24:07.806Z,8.4
2024-02-01T13:25:09.988Z,8.4
2024-02-01T13:26:11.693Z,8.4
2024-02-01T13:27:13.858Z,8.4
2024-02-01T13:28:16.265Z,8.4
2024-02-01T13:29:17.873Z,8.4
2024-02-01T13:30:20.294Z,8.4
2024-02-01T13:31:23.627Z,8.4
2024-02-01T13:32:25.360Z,8.4
2024-02-01T13:33:27.143Z,8.4
2024-02-01T13:34:30.398Z,8.3
2024-02-01T13:35:33.193Z,8.3
2024-02-01T13:36:34.882Z,8.3
2024-02-01T13:37:36.406Z,8.3
2024-02-01T13:38:38.081Z,8.2
2024-02-01T13:39:40.400Z,8.2
2024-02-01T13:40:42.846Z,8.2
2024-02-01T13:41:44.392Z,8.2
2024-02-01T13:42:47.285Z,8.1
2024-02-01T13:43:48.944Z,8.1
2024-02-01T13:44:50.687Z,8.1
2024-02-01T13:45:53.042Z,8.1
2024-02-01T13:46:54.826Z,8.1
2024-02-01T13:47:56.632Z,8
2024-02-01T13:48:59.767Z,8
2024-02-01T13:50:02.807Z,8
2024-02-01T13:51:05.647Z,8
2024-02-01T13:52:07.486Z,8
2024-02-01T13:53:09.426Z,8
2024-02-01T13:54:11.163Z,8
2024-02-01T13:55:13.322Z,8
2024-02-01T13:56:19.196Z,8
2024-02-01T13:57:22.800Z,8
2024-02-01T13:58:25.202Z,8
2024-02-01T13:59:26.740Z,8
2024-02-01T14:00:33.168Z,7.9
2024-02-01T14:02:02.193Z,7.9
2024-02-01T14:03:04.000Z,7.9
2024-02-01T14:04:06.557Z,7.9
2024-02-01T14:05:08.616Z,7.9
2024-02-01T14:06:10.236Z,7.9
2024-02-01T14:07:12.418Z,7.9
2024-02-01T14:08:13.913Z,7.9
2024-02-01T14:09:15.779Z,7.9
2024-02-01T14:10:18.535Z,7.8
2024-02-01T14:11:21.262Z,7.8
2024-02-01T14:12:24.901Z,7.8
2024-02-01T14:13:26.996Z,7.8
2024-02-01T14:14:28.553Z,7.8
2024-02-01T14:15:30.175Z,7.8
2024-02-01T14:16:32.525Z,7.8
2024-02-01T14:17:34.083Z,7.8
2024-02-01T14:18:38.299Z,7.8
2024-02-01T14:19:41.684Z,7.8
2024-02-01T14:20:44.746Z,7.8
2024-02-01T14:21:47.251Z,7.7
2024-02-01T14:22:48.866Z,7.7
2024-02-01T14:23:50.482Z,7.7